Skip Navigation LinksHome page > Weather > Current weather Skip Navigation Links

Current Weather

New Bedford Regional, New Bedford, Mass.

For information only: do not use for flight planning or navigation.
Latest weather
Observation time Sunday, August 25, 2019 12:53 AM EDT
Local time Sunday, August 25, 2019 1:13 AM EDT
Flight conditions Visual Meteorological Conditions
Winds
Wind speed calm
Visibility 10 mi.
Sky condition
Ceiling unlimited
Sky clear
Temperature 57°F
Dewpoint 54°F
Altimeter 30.27 in.Hg
Derived measurements
Relative humidity 89%
Density altitude -250 ft.
Sea-level pressure 30.27 in.Hg
Climate data
Temperature minimum, last 24 hours 55°F
Temperature maximum, last 24 hours 75°F
Remarks
Fully automated report.
Automated weather observing station with precipitation discriminator.
METAR KEWB 250453Z AUTO 00000KT 10SM CLR 14/12 A3027 RMK AO2 SLP249 T01390122 402390128

Settings

Location code

InnerDrive.Weather 4.0.6770.0 Release CLR 4.0.30319.42000
Copyright ©2018 Inner Drive Technology. All rights reserved. Portions Copyright ©1986-2018 David Braverman.

Find weather

Site navigation


Skip Navigation Links

Place info

Page info

PayPal - The safer, easier way to pay online!

Return home.

Copyright ©2019 Inner Drive Technology. Purveyors of fine, hand-crafted computer software. Page printed 2019-08-25T05:13:19 UTC.